sensor_id;sensor_type;location;lat;lon;timestamp;temperature;humidity
28725;DHT22;43472;48.980;9.646;2022-12-29T00:03:01;10.20;99.90
28725;DHT22;43472;48.980;9.646;2022-12-29T00:08:04;10.30;99.90
28725;DHT22;43472;48.980;9.646;2022-12-29T00:13:06;10.40;99.90
28725;DHT22;43472;48.980;9.646;2022-12-29T00:18:27;10.40;99.90
28725;DHT22;43472;48.980;9.646;2022-12-29T00:23:28;10.60;99.90
28725;DHT22;43472;48.980;9.646;2022-12-29T00:28:50;10.60;99.90
28725;DHT22;43472;48.980;9.646;2022-12-29T00:34:11;10.70;99.90
28725;DHT22;43472;48.980;9.646;2022-12-29T00:39:31;10.70;99.90
28725;DHT22;43472;48.980;9.646;2022-12-29T00:44:52;10.70;99.90
28725;DHT22;43472;48.980;9.646;2022-12-29T00:49:53;10.60;99.90
28725;DHT22;43472;48.980;9.646;2022-12-29T00:54:55;10.70;99.90
28725;DHT22;43472;48.980;9.646;2022-12-29T00:59:57;10.70;99.90
28725;DHT22;43472;48.980;9.646;2022-12-29T01:04:59;10.80;99.90
28725;DHT22;43472;48.980;9.646;2022-12-29T01:10:01;10.80;99.90
28725;DHT22;43472;48.980;9.646;2022-12-29T01:15:14;10.80;99.90
28725;DHT22;43472;48.980;9.646;2022-12-29T01:20:16;10.80;99.90
28725;DHT22;43472;48.980;9.646;2022-12-29T01:25:18;11.00;99.90
28725;DHT22;43472;48.980;9.646;2022-12-29T01:30:20;10.90;99.90
28725;DHT22;43472;48.980;9.646;2022-12-29T01:40:24;10.80;99.90
28725;DHT22;43472;48.980;9.646;2022-12-29T01:45:26;10.90;99.90
28725;DHT22;43472;48.980;9.646;2022-12-29T01:50:41;10.90;99.90
28725;DHT22;43472;48.980;9.646;2022-12-29T01:55:52;10.80;99.90
28725;DHT22;43472;48.980;9.646;2022-12-29T02:00:54;10.80;99.90
28725;DHT22;43472;48.980;9.646;2022-12-29T02:06:13;11.00;99.90
28725;DHT22;43472;48.980;9.646;2022-12-29T02:11:18;11.00;99.90
28725;DHT22;43472;48.980;9.646;2022-12-29T02:16:30;11.10;99.90
28725;DHT22;43472;48.980;9.646;2022-12-29T02:28:09;11.10;99.90
28725;DHT22;43472;48.980;9.646;2022-12-29T02:33:21;11.10;99.90
28725;DHT22;43472;48.980;9.646;2022-12-29T02:43:56;11.10;99.90
28725;DHT22;43472;48.980;9.646;2022-12-29T02:54:05;11.20;99.90
28725;DHT22;43472;48.980;9.646;2022-12-29T02:59:26;11.20;99.90
28725;DHT22;43472;48.980;9.646;2022-12-29T03:04:39;11.20;99.90
28725;DHT22;43472;48.980;9.646;2022-12-29T03:09:55;11.20;99.90
28725;DHT22;43472;48.980;9.646;2022-12-29T03:15:09;11.30;99.90
28725;DHT22;43472;48.980;9.646;2022-12-29T03:20:38;11.50;99.90
28725;DHT22;43472;48.980;9.646;2022-12-29T03:25:44;11.50;99.90
28725;DHT22;43472;48.980;9.646;2022-12-29T03:30:48;11.50;99.90
28725;DHT22;43472;48.980;9.646;2022-12-29T03:35:52;11.70;99.90
28725;DHT22;43472;48.980;9.646;2022-12-29T03:40:59;11.50;99.90
28725;DHT22;43472;48.980;9.646;2022-12-29T03:46:03;11.60;99.90
28725;DHT22;43472;48.980;9.646;2022-12-29T03:56:07;11.70;99.90
28725;DHT22;43472;48.980;9.646;2022-12-29T04:01:08;11.80;99.90
28725;DHT22;43472;48.980;9.646;2022-12-29T04:06:10;11.80;99.90
28725;DHT22;43472;48.980;9.646;2022-12-29T04:11:12;11.70;99.90
28725;DHT22;43472;48.980;9.646;2022-12-29T04:16:15;11.80;99.90
28725;DHT22;43472;48.980;9.646;2022-12-29T04:21:17;11.90;99.90
28725;DHT22;43472;48.980;9.646;2022-12-29T04:26:18;11.80;99.90
28725;DHT22;43472;48.980;9.646;2022-12-29T04:31:20;11.80;99.90
28725;DHT22;43472;48.980;9.646;2022-12-29T04:36:22;11.80;99.90
28725;DHT22;43472;48.980;9.646;2022-12-29T04:41:30;11.80;99.90
28725;DHT22;43472;48.980;9.646;2022-12-29T04:46:32;11.80;99.90
28725;DHT22;43472;48.980;9.646;2022-12-29T04:51:34;12.20;99.90
28725;DHT22;43472;48.980;9.646;2022-12-29T04:56:37;11.90;99.90
28725;DHT22;43472;48.980;9.646;2022-12-29T05:01:38;11.80;99.90
28725;DHT22;43472;48.980;9.646;2022-12-29T05:06:40;11.80;99.90
28725;DHT22;43472;48.980;9.646;2022-12-29T05:11:42;11.60;99.90
28725;DHT22;43472;48.980;9.646;2022-12-29T05:16:44;11.50;99.90
28725;DHT22;43472;48.980;9.646;2022-12-29T05:21:46;11.40;99.90
28725;DHT22;43472;48.980;9.646;2022-12-29T05:26:47;11.40;99.90
28725;DHT22;43472;48.980;9.646;2022-12-29T05:31:49;11.40;99.90
28725;DHT22;43472;48.980;9.646;2022-12-29T05:36:51;11.40;99.90
28725;DHT22;43472;48.980;9.646;2022-12-29T05:41:53;11.40;99.90
28725;DHT22;43472;48.980;9.646;2022-12-29T05:46:54;11.30;99.90
28725;DHT22;43472;48.980;9.646;2022-12-29T05:51:56;11.40;99.90
28725;DHT22;43472;48.980;9.646;2022-12-29T05:56:58;11.50;99.90
28725;DHT22;43472;48.980;9.646;2022-12-29T06:07:02;11.50;99.90
28725;DHT22;43472;48.980;9.646;2022-12-29T06:12:05;11.70;99.90
28725;DHT22;43472;48.980;9.646;2022-12-29T06:17:06;11.80;99.90
28725;DHT22;43472;48.980;9.646;2022-12-29T06:22:08;11.70;99.90
28725;DHT22;43472;48.980;9.646;2022-12-29T06:27:12;11.70;99.90
28725;DHT22;43472;48.980;9.646;2022-12-29T06:32:15;11.70;99.90
28725;DHT22;43472;48.980;9.646;2022-12-29T06:37:17;11.70;99.90
28725;DHT22;43472;48.980;9.646;2022-12-29T06:42:18;11.60;99.90
28725;DHT22;43472;48.980;9.646;2022-12-29T06:47:20;11.60;99.90
28725;DHT22;43472;48.980;9.646;2022-12-29T06:52:22;11.70;99.90
28725;DHT22;43472;48.980;9.646;2022-12-29T06:57:25;11.70;99.90
28725;DHT22;43472;48.980;9.646;2022-12-29T07:02:28;11.70;99.90
28725;DHT22;43472;48.980;9.646;2022-12-29T07:07:30;11.80;99.90
28725;DHT22;43472;48.980;9.646;2022-12-29T07:12:32;11.90;99.90
28725;DHT22;43472;48.980;9.646;2022-12-29T07:17:33;12.00;99.90
28725;DHT22;43472;48.980;9.646;2022-12-29T07:22:35;12.00;99.90
28725;DHT22;43472;48.980;9.646;2022-12-29T07:27:37;12.00;99.90
28725;DHT22;43472;48.980;9.646;2022-12-29T07:32:39;12.10;99.90
28725;DHT22;43472;48.980;9.646;2022-12-29T07:37:41;12.10;99.90
28725;DHT22;43472;48.980;9.646;2022-12-29T07:42:43;12.10;99.90
28725;DHT22;43472;48.980;9.646;2022-12-29T07:47:48;12.10;99.90
28725;DHT22;43472;48.980;9.646;2022-12-29T07:52:50;12.20;99.90
28725;DHT22;43472;48.980;9.646;2022-12-29T07:57:56;12.20;99.90
28725;DHT22;43472;48.980;9.646;2022-12-29T08:02:58;12.30;99.90
28725;DHT22;43472;48.980;9.646;2022-12-29T08:08:00;12.40;99.90
28725;DHT22;43472;48.980;9.646;2022-12-29T08:13:02;12.40;99.90
28725;DHT22;43472;48.980;9.646;2022-12-29T08:18:04;12.40;99.90
28725;DHT22;43472;48.980;9.646;2022-12-29T08:23:05;12.40;99.90
28725;DHT22;43472;48.980;9.646;2022-12-29T08:28:07;12.40;99.90
28725;DHT22;43472;48.980;9.646;2022-12-29T08:33:09;12.50;99.90
28725;DHT22;43472;48.980;9.646;2022-12-29T08:38:11;12.50;99.90
28725;DHT22;43472;48.980;9.646;2022-12-29T08:43:13;12.50;99.90
28725;DHT22;43472;48.980;9.646;2022-12-29T08:48:19;12.50;99.90
28725;DHT22;43472;48.980;9.646;2022-12-29T08:53:23;12.50;99.90
28725;DHT22;43472;48.980;9.646;2022-12-29T08:58:25;12.40;99.90
28725;DHT22;43472;48.980;9.646;2022-12-29T09:03:28;12.50;99.90
28725;DHT22;43472;48.980;9.646;2022-12-29T09:08:49;12.60;99.90
28725;DHT22;43472;48.980;9.646;2022-12-29T09:13:52;12.60;99.90
28725;DHT22;43472;48.980;9.646;2022-12-29T09:18:54;12.60;99.90
28725;DHT22;43472;48.980;9.646;2022-12-29T09:23:56;12.60;99.90
28725;DHT22;43472;48.980;9.646;2022-12-29T09:34:00;12.60;99.90
28725;DHT22;43472;48.980;9.646;2022-12-29T09:39:02;12.60;99.90
28725;DHT22;43472;48.980;9.646;2022-12-29T09:44:17;12.60;99.90
28725;DHT22;43472;48.980;9.646;2022-12-29T09:55:22;12.60;99.90
28725;DHT22;43472;48.980;9.646;2022-12-29T10:00:58;12.70;99.90
28725;DHT22;43472;48.980;9.646;2022-12-29T10:06:17;12.60;99.90
28725;DHT22;43472;48.980;9.646;2022-12-29T10:22:22;12.90;99.90
28725;DHT22;43472;48.980;9.646;2022-12-29T10:27:32;13.20;99.90
28725;DHT22;43472;48.980;9.646;2022-12-29T10:32:50;15.60;99.90
28725;DHT22;43472;48.980;9.646;2022-12-29T10:38:45;12.90;99.90
28725;DHT22;43472;48.980;9.646;2022-12-29T10:43:52;12.80;99.90
28725;DHT22;43472;48.980;9.646;2022-12-29T10:48:54;12.60;99.90
28725;DHT22;43472;48.980;9.646;2022-12-29T10:59:25;12.50;99.90
28725;DHT22;43472;48.980;9.646;2022-12-29T11:09:41;12.60;99.90
28725;DHT22;43472;48.980;9.646;2022-12-29T11:14:44;12.60;99.90
28725;DHT22;43472;48.980;9.646;2022-12-29T11:19:46;12.50;99.90
28725;DHT22;43472;48.980;9.646;2022-12-29T11:24:49;12.50;99.90
28725;DHT22;43472;48.980;9.646;2022-12-29T11:29:53;12.60;99.90
28725;DHT22;43472;48.980;9.646;2022-12-29T11:34:58;12.80;99.90
28725;DHT22;43472;48.980;9.646;2022-12-29T11:40:05;12.90;99.90
28725;DHT22;43472;48.980;9.646;2022-12-29T11:45:24;12.90;99.90
28725;DHT22;43472;48.980;9.646;2022-12-29T11:50:32;12.90;99.90
28725;DHT22;43472;48.980;9.646;2022-12-29T11:55:34;12.70;99.90
28725;DHT22;43472;48.980;9.646;2022-12-29T12:00:38;12.70;99.90
28725;DHT22;43472;48.980;9.646;2022-12-29T12:16:22;12.80;99.90
28725;DHT22;43472;48.980;9.646;2022-12-29T12:21:43;12.60;99.90
28725;DHT22;43472;48.980;9.646;2022-12-29T12:32:44;12.30;99.90
28725;DHT22;43472;48.980;9.646;2022-12-29T12:59:38;12.10;99.90
28725;DHT22;43472;48.980;9.646;2022-12-29T13:05:01;12.10;99.90
28725;DHT22;43472;48.980;9.646;2022-12-29T13:10:26;12.20;99.90
28725;DHT22;43472;48.980;9.646;2022-12-29T13:20:39;12.40;99.90
28725;DHT22;43472;48.980;9.646;2022-12-29T13:31:28;12.50;99.90
28725;DHT22;43472;48.980;9.646;2022-12-29T13:36:31;12.60;99.90
28725;DHT22;43472;48.980;9.646;2022-12-29T13:41:54;12.70;99.90
28725;DHT22;43472;48.980;9.646;2022-12-29T13:47:00;12.50;99.90
28725;DHT22;43472;48.980;9.646;2022-12-29T13:52:47;12.80;99.90
28725;DHT22;43472;48.980;9.646;2022-12-29T13:58:12;12.50;99.90
28725;DHT22;43472;48.980;9.646;2022-12-29T14:03:41;12.60;99.90
28725;DHT22;43472;48.980;9.646;2022-12-29T14:08:44;12.60;99.90
28725;DHT22;43472;48.980;9.646;2022-12-29T14:13:47;12.50;99.90
28725;DHT22;43472;48.980;9.646;2022-12-29T14:18:50;12.40;99.90
28725;DHT22;43472;48.980;9.646;2022-12-29T14:23:52;12.40;99.90
28725;DHT22;43472;48.980;9.646;2022-12-29T14:28:55;12.40;99.90
28725;DHT22;43472;48.980;9.646;2022-12-29T14:39:32;12.40;99.90
28725;DHT22;43472;48.980;9.646;2022-12-29T14:45:03;12.40;99.90
28725;DHT22;43472;48.980;9.646;2022-12-29T14:50:16;12.40;99.90
28725;DHT22;43472;48.980;9.646;2022-12-29T14:55:40;12.20;99.90
28725;DHT22;43472;48.980;9.646;2022-12-29T15:00:44;12.20;99.90
28725;DHT22;43472;48.980;9.646;2022-12-29T15:05:50;12.40;99.90
28725;DHT22;43472;48.980;9.646;2022-12-29T15:11:01;12.20;99.90
28725;DHT22;43472;48.980;9.646;2022-12-29T15:16:19;12.20;99.90
28725;DHT22;43472;48.980;9.646;2022-12-29T15:21:29;12.30;99.90
28725;DHT22;43472;48.980;9.646;2022-12-29T15:26:44;12.10;99.90
28725;DHT22;43472;48.980;9.646;2022-12-29T15:31:47;12.20;99.90
28725;DHT22;43472;48.980;9.646;2022-12-29T15:36:50;12.00;99.90
28725;DHT22;43472;48.980;9.646;2022-12-29T15:41:59;12.00;99.90
28725;DHT22;43472;48.980;9.646;2022-12-29T15:52:20;12.10;99.90
28725;DHT22;43472;48.980;9.646;2022-12-29T15:57:28;12.10;99.90
28725;DHT22;43472;48.980;9.646;2022-12-29T16:02:30;12.10;99.90
28725;DHT22;43472;48.980;9.646;2022-12-29T16:07:33;12.00;99.90
28725;DHT22;43472;48.980;9.646;2022-12-29T16:12:42;10.80;99.90
28725;DHT22;43472;48.980;9.646;2022-12-29T16:17:52;10.60;99.90
28725;DHT22;43472;48.980;9.646;2022-12-29T16:22:56;10.70;99.90
28725;DHT22;43472;48.980;9.646;2022-12-29T16:27:59;10.40;99.90
28725;DHT22;43472;48.980;9.646;2022-12-29T16:33:04;10.40;99.90
28725;DHT22;43472;48.980;9.646;2022-12-29T16:38:19;10.60;99.90
28725;DHT22;43472;48.980;9.646;2022-12-29T16:43:34;10.60;99.90
28725;DHT22;43472;48.980;9.646;2022-12-29T16:48:46;10.50;99.90
28725;DHT22;43472;48.980;9.646;2022-12-29T16:53:53;10.50;99.90
28725;DHT22;43472;48.980;9.646;2022-12-29T16:59:08;10.70;99.90
28725;DHT22;43472;48.980;9.646;2022-12-29T17:04:18;10.60;99.90
28725;DHT22;43472;48.980;9.646;2022-12-29T17:09:22;10.50;99.90
28725;DHT22;43472;48.980;9.646;2022-12-29T17:19:48;10.60;99.90
28725;DHT22;43472;48.980;9.646;2022-12-29T17:24:56;11.00;99.90
28725;DHT22;43472;48.980;9.646;2022-12-29T17:30:03;10.60;99.90
28725;DHT22;43472;48.980;9.646;2022-12-29T17:35:05;10.40;99.90
28725;DHT22;43472;48.980;9.646;2022-12-29T17:40:18;10.50;99.90
28725;DHT22;43472;48.980;9.646;2022-12-29T17:45:23;10.50;99.90
28725;DHT22;43472;48.980;9.646;2022-12-29T17:50:27;10.50;99.90
28725;DHT22;43472;48.980;9.646;2022-12-29T17:55:33;10.30;99.90
28725;DHT22;43472;48.980;9.646;2022-12-29T18:00:39;10.60;99.90
28725;DHT22;43472;48.980;9.646;2022-12-29T18:05:41;10.50;99.90
28725;DHT22;43472;48.980;9.646;2022-12-29T18:10:43;10.20;99.90
28725;DHT22;43472;48.980;9.646;2022-12-29T18:15:45;10.30;99.90
28725;DHT22;43472;48.980;9.646;2022-12-29T18:20:49;10.30;99.90
28725;DHT22;43472;48.980;9.646;2022-12-29T18:25:58;10.30;99.90
28725;DHT22;43472;48.980;9.646;2022-12-29T18:31:01;10.30;99.90
28725;DHT22;43472;48.980;9.646;2022-12-29T18:36:04;10.30;99.90
28725;DHT22;43472;48.980;9.646;2022-12-29T18:41:16;10.30;99.90
28725;DHT22;43472;48.980;9.646;2022-12-29T18:46:18;10.20;99.90
28725;DHT22;43472;48.980;9.646;2022-12-29T18:51:24;10.30;99.90
28725;DHT22;43472;48.980;9.646;2022-12-29T19:01:28;10.20;99.90
28725;DHT22;43472;48.980;9.646;2022-12-29T19:06:31;11.30;99.90
28725;DHT22;43472;48.980;9.646;2022-12-29T19:21:38;10.30;99.90
28725;DHT22;43472;48.980;9.646;2022-12-29T19:26:40;10.20;99.90
28725;DHT22;43472;48.980;9.646;2022-12-29T19:36:45;10.20;99.90
28725;DHT22;43472;48.980;9.646;2022-12-29T19:41:46;10.10;99.90
28725;DHT22;43472;48.980;9.646;2022-12-29T19:46:48;10.20;99.90
28725;DHT22;43472;48.980;9.646;2022-12-29T19:51:50;10.10;99.90
28725;DHT22;43472;48.980;9.646;2022-12-29T19:56:53;10.10;99.90
28725;DHT22;43472;48.980;9.646;2022-12-29T20:01:56;10.00;99.90
28725;DHT22;43472;48.980;9.646;2022-12-29T20:06:58;10.00;99.90
28725;DHT22;43472;48.980;9.646;2022-12-29T20:12:00;10.10;99.90
28725;DHT22;43472;48.980;9.646;2022-12-29T20:17:02;10.10;99.90
28725;DHT22;43472;48.980;9.646;2022-12-29T20:32:20;9.90;99.90
28725;DHT22;43472;48.980;9.646;2022-12-29T20:42:27;9.70;99.90
28725;DHT22;43472;48.980;9.646;2022-12-29T20:52:31;9.90;99.90
28725;DHT22;43472;48.980;9.646;2022-12-29T20:57:33;10.00;99.90
28725;DHT22;43472;48.980;9.646;2022-12-29T21:02:56;9.90;99.90
28725;DHT22;43472;48.980;9.646;2022-12-29T21:07:58;9.90;99.90
28725;DHT22;43472;48.980;9.646;2022-12-29T21:13:00;9.60;99.90
28725;DHT22;43472;48.980;9.646;2022-12-29T21:18:02;9.50;99.90
28725;DHT22;43472;48.980;9.646;2022-12-29T21:28:08;9.40;99.90
28725;DHT22;43472;48.980;9.646;2022-12-29T21:33:12;9.40;99.90
28725;DHT22;43472;48.980;9.646;2022-12-29T21:43:16;8.90;99.90
28725;DHT22;43472;48.980;9.646;2022-12-29T21:48:18;9.20;99.90
28725;DHT22;43472;48.980;9.646;2022-12-29T21:53:26;9.20;99.90
28725;DHT22;43472;48.980;9.646;2022-12-29T21:58:41;9.30;99.90
28725;DHT22;43472;48.980;9.646;2022-12-29T22:04:01;9.30;99.90
28725;DHT22;43472;48.980;9.646;2022-12-29T22:09:21;9.10;99.90
28725;DHT22;43472;48.980;9.646;2022-12-29T22:14:44;9.30;99.90
28725;DHT22;43472;48.980;9.646;2022-12-29T22:19:46;9.30;99.90
28725;DHT22;43472;48.980;9.646;2022-12-29T22:24:48;9.30;99.90
28725;DHT22;43472;48.980;9.646;2022-12-29T22:29:49;9.30;99.90
28725;DHT22;43472;48.980;9.646;2022-12-29T22:34:51;10.60;99.90
28725;DHT22;43472;48.980;9.646;2022-12-29T22:39:53;9.70;99.90
28725;DHT22;43472;48.980;9.646;2022-12-29T22:44:55;9.40;99.90
28725;DHT22;43472;48.980;9.646;2022-12-29T22:49:57;9.40;99.90
28725;DHT22;43472;48.980;9.646;2022-12-29T22:54:58;9.40;99.90
28725;DHT22;43472;48.980;9.646;2022-12-29T23:00:07;9.50;99.90
28725;DHT22;43472;48.980;9.646;2022-12-29T23:05:09;9.50;99.90
28725;DHT22;43472;48.980;9.646;2022-12-29T23:10:12;9.40;99.90
28725;DHT22;43472;48.980;9.646;2022-12-29T23:15:13;9.40;99.90
28725;DHT22;43472;48.980;9.646;2022-12-29T23:20:15;9.30;99.90
28725;DHT22;43472;48.980;9.646;2022-12-29T23:25:17;9.40;99.90
28725;DHT22;43472;48.980;9.646;2022-12-29T23:30:19;9.30;99.90
28725;DHT22;43472;48.980;9.646;2022-12-29T23:35:21;9.80;99.90
28725;DHT22;43472;48.980;9.646;2022-12-29T23:40:22;9.30;99.90
28725;DHT22;43472;48.980;9.646;2022-12-29T23:45:24;9.30;99.90
28725;DHT22;43472;48.980;9.646;2022-12-29T23:50:26;9.30;99.90
28725;DHT22;43472;48.980;9.646;2022-12-29T23:55:28;9.30;99.90
